sensor_id;sensor_type;location;lat;lon;timestamp;P1;durP1;ratioP1;P2;durP2;ratioP2
69434;SDS011;56625;54.322;18.582;2022-10-13T00:01:14;8.40;;;2.80;;
69434;SDS011;56625;54.322;18.582;2022-10-13T00:03:44;9.20;;;3.10;;
69434;SDS011;56625;54.322;18.582;2022-10-13T00:06:16;8.20;;;2.80;;
69434;SDS011;56625;54.322;18.582;2022-10-13T00:08:45;10.70;;;3.10;;
69434;SDS011;56625;54.322;18.582;2022-10-13T00:11:24;9.20;;;3.10;;
69434;SDS011;56625;54.322;18.582;2022-10-13T00:13:56;11.10;;;3.00;;
69434;SDS011;56625;54.322;18.582;2022-10-13T00:16:26;11.40;;;2.80;;
69434;SDS011;56625;54.322;18.582;2022-10-13T00:18:56;9.40;;;2.80;;
69434;SDS011;56625;54.322;18.582;2022-10-13T00:21:25;9.40;;;3.50;;
69434;SDS011;56625;54.322;18.582;2022-10-13T00:23:54;9.60;;;3.00;;
69434;SDS011;56625;54.322;18.582;2022-10-13T00:26:23;8.10;;;3.00;;
69434;SDS011;56625;54.322;18.582;2022-10-13T00:28:53;9.20;;;2.90;;
69434;SDS011;56625;54.322;18.582;2022-10-13T00:31:25;10.30;;;3.00;;
69434;SDS011;56625;54.322;18.582;2022-10-13T00:33:59;9.90;;;3.10;;
69434;SDS011;56625;54.322;18.582;2022-10-13T00:36:28;6.90;;;2.50;;
69434;SDS011;56625;54.322;18.582;2022-10-13T00:38:57;10.20;;;2.80;;
69434;SDS011;56625;54.322;18.582;2022-10-13T00:41:25;11.10;;;2.90;;
69434;SDS011;56625;54.322;18.582;2022-10-13T00:43:58;9.80;;;3.20;;
69434;SDS011;56625;54.322;18.582;2022-10-13T00:46:33;12.70;;;3.70;;
69434;SDS011;56625;54.322;18.582;2022-10-13T00:49:08;8.80;;;2.80;;
69434;SDS011;56625;54.322;18.582;2022-10-13T00:51:44;9.60;;;2.70;;
69434;SDS011;56625;54.322;18.582;2022-10-13T00:54:19;9.20;;;2.70;;
69434;SDS011;56625;54.322;18.582;2022-10-13T00:56:51;9.50;;;2.80;;
69434;SDS011;56625;54.322;18.582;2022-10-13T00:59:24;10.20;;;3.30;;
69434;SDS011;56625;54.322;18.582;2022-10-13T01:01:57;9.40;;;3.10;;
69434;SDS011;56625;54.322;18.582;2022-10-13T01:04:31;10.00;;;3.10;;
69434;SDS011;56625;54.322;18.582;2022-10-13T01:07:04;11.70;;;3.70;;
69434;SDS011;56625;54.322;18.582;2022-10-13T01:09:32;8.60;;;3.00;;
69434;SDS011;56625;54.322;18.582;2022-10-13T01:12:15;11.20;;;3.10;;
69434;SDS011;56625;54.322;18.582;2022-10-13T01:20:53;11.20;;;3.50;;
69434;SDS011;56625;54.322;18.582;2022-10-13T01:29:10;10.40;;;3.00;;
69434;SDS011;56625;54.322;18.582;2022-10-13T01:34:57;10.30;;;3.30;;
69434;SDS011;56625;54.322;18.582;2022-10-13T01:37:33;10.10;;;3.50;;
69434;SDS011;56625;54.322;18.582;2022-10-13T01:40:25;10.30;;;3.00;;
69434;SDS011;56625;54.322;18.582;2022-10-13T01:45:56;12.00;;;3.40;;
69434;SDS011;56625;54.322;18.582;2022-10-13T01:48:28;9.10;;;2.90;;
69434;SDS011;56625;54.322;18.582;2022-10-13T01:50:59;9.70;;;3.10;;
69434;SDS011;56625;54.322;18.582;2022-10-13T01:53:27;10.20;;;3.10;;
69434;SDS011;56625;54.322;18.582;2022-10-13T01:55:58;7.60;;;2.50;;
69434;SDS011;56625;54.322;18.582;2022-10-13T01:58:29;11.20;;;2.90;;
69434;SDS011;56625;54.322;18.582;2022-10-13T02:04:00;9.20;;;3.00;;
69434;SDS011;56625;54.322;18.582;2022-10-13T02:12:26;11.50;;;3.20;;
69434;SDS011;56625;54.322;18.582;2022-10-13T02:14:59;9.20;;;2.70;;
69434;SDS011;56625;54.322;18.582;2022-10-13T02:17:29;8.90;;;2.80;;
69434;SDS011;56625;54.322;18.582;2022-10-13T02:19:58;9.80;;;3.30;;
69434;SDS011;56625;54.322;18.582;2022-10-13T02:22:29;8.20;;;2.60;;
69434;SDS011;56625;54.322;18.582;2022-10-13T02:25:03;10.60;;;3.70;;
69434;SDS011;56625;54.322;18.582;2022-10-13T02:27:31;11.50;;;3.90;;
69434;SDS011;56625;54.322;18.582;2022-10-13T02:29:59;9.30;;;3.60;;
69434;SDS011;56625;54.322;18.582;2022-10-13T02:32:27;12.00;;;3.50;;
69434;SDS011;56625;54.322;18.582;2022-10-13T02:34:55;9.00;;;3.60;;
69434;SDS011;56625;54.322;18.582;2022-10-13T02:37:23;9.80;;;3.30;;
69434;SDS011;56625;54.322;18.582;2022-10-13T02:39:53;11.90;;;4.00;;
69434;SDS011;56625;54.322;18.582;2022-10-13T02:42:21;12.50;;;4.20;;
69434;SDS011;56625;54.322;18.582;2022-10-13T02:44:50;12.40;;;4.00;;
69434;SDS011;56625;54.322;18.582;2022-10-13T02:47:17;10.30;;;3.70;;
69434;SDS011;56625;54.322;18.582;2022-10-13T02:49:45;9.20;;;3.30;;
69434;SDS011;56625;54.322;18.582;2022-10-13T02:52:13;10.10;;;3.30;;
69434;SDS011;56625;54.322;18.582;2022-10-13T02:54:41;10.40;;;3.70;;
69434;SDS011;56625;54.322;18.582;2022-10-13T02:57:08;11.70;;;4.40;;
69434;SDS011;56625;54.322;18.582;2022-10-13T02:59:36;11.70;;;3.80;;
69434;SDS011;56625;54.322;18.582;2022-10-13T03:02:04;10.10;;;3.80;;
69434;SDS011;56625;54.322;18.582;2022-10-13T03:04:31;12.90;;;3.90;;
69434;SDS011;56625;54.322;18.582;2022-10-13T03:06:59;11.70;;;3.70;;
69434;SDS011;56625;54.322;18.582;2022-10-13T03:09:27;10.10;;;3.80;;
69434;SDS011;56625;54.322;18.582;2022-10-13T03:11:55;9.20;;;3.70;;
69434;SDS011;56625;54.322;18.582;2022-10-13T03:14:22;10.10;;;3.90;;
69434;SDS011;56625;54.322;18.582;2022-10-13T03:16:50;10.90;;;4.10;;
69434;SDS011;56625;54.322;18.582;2022-10-13T03:19:18;9.40;;;3.30;;
69434;SDS011;56625;54.322;18.582;2022-10-13T03:21:46;10.50;;;4.00;;
69434;SDS011;56625;54.322;18.582;2022-10-13T03:24:13;8.40;;;3.20;;
69434;SDS011;56625;54.322;18.582;2022-10-13T03:26:41;11.90;;;4.00;;
69434;SDS011;56625;54.322;18.582;2022-10-13T03:29:13;10.00;;;3.80;;
69434;SDS011;56625;54.322;18.582;2022-10-13T03:31:42;11.10;;;3.70;;
69434;SDS011;56625;54.322;18.582;2022-10-13T03:34:11;10.70;;;3.80;;
69434;SDS011;56625;54.322;18.582;2022-10-13T03:36:41;12.90;;;4.40;;
69434;SDS011;56625;54.322;18.582;2022-10-13T03:39:09;12.10;;;4.70;;
69434;SDS011;56625;54.322;18.582;2022-10-13T03:41:37;13.20;;;5.50;;
69434;SDS011;56625;54.322;18.582;2022-10-13T03:44:05;11.70;;;4.70;;
69434;SDS011;56625;54.322;18.582;2022-10-13T03:46:34;14.70;;;5.30;;
69434;SDS011;56625;54.322;18.582;2022-10-13T03:49:01;15.40;;;5.30;;
69434;SDS011;56625;54.322;18.582;2022-10-13T03:51:29;11.10;;;4.10;;
69434;SDS011;56625;54.322;18.582;2022-10-13T03:53:57;12.10;;;4.60;;
69434;SDS011;56625;54.322;18.582;2022-10-13T03:56:25;12.20;;;4.10;;
69434;SDS011;56625;54.322;18.582;2022-10-13T03:58:56;11.20;;;4.30;;
69434;SDS011;56625;54.322;18.582;2022-10-13T04:01:28;16.70;;;4.70;;
69434;SDS011;56625;54.322;18.582;2022-10-13T04:03:58;14.00;;;4.90;;
69434;SDS011;56625;54.322;18.582;2022-10-13T04:06:29;11.90;;;4.40;;
69434;SDS011;56625;54.322;18.582;2022-10-13T04:08:57;12.30;;;3.90;;
69434;SDS011;56625;54.322;18.582;2022-10-13T04:11:25;11.20;;;3.60;;
69434;SDS011;56625;54.322;18.582;2022-10-13T04:13:54;12.00;;;4.00;;
69434;SDS011;56625;54.322;18.582;2022-10-13T04:16:26;10.30;;;3.80;;
69434;SDS011;56625;54.322;18.582;2022-10-13T04:19:02;14.40;;;5.50;;
69434;SDS011;56625;54.322;18.582;2022-10-13T04:21:33;12.10;;;4.70;;
69434;SDS011;56625;54.322;18.582;2022-10-13T04:24:02;12.70;;;4.10;;
69434;SDS011;56625;54.322;18.582;2022-10-13T04:26:33;12.10;;;3.60;;
69434;SDS011;56625;54.322;18.582;2022-10-13T04:29:04;11.80;;;3.90;;
69434;SDS011;56625;54.322;18.582;2022-10-13T04:31:33;9.50;;;3.10;;
69434;SDS011;56625;54.322;18.582;2022-10-13T04:34:01;12.20;;;3.70;;
69434;SDS011;56625;54.322;18.582;2022-10-13T04:36:29;12.00;;;3.90;;
69434;SDS011;56625;54.322;18.582;2022-10-13T04:38:57;12.10;;;4.30;;
69434;SDS011;56625;54.322;18.582;2022-10-13T04:41:25;14.20;;;4.40;;
69434;SDS011;56625;54.322;18.582;2022-10-13T04:43:53;14.40;;;3.50;;
69434;SDS011;56625;54.322;18.582;2022-10-13T04:46:24;11.40;;;3.60;;
69434;SDS011;56625;54.322;18.582;2022-10-13T04:48:53;12.50;;;3.80;;
69434;SDS011;56625;54.322;18.582;2022-10-13T04:51:23;14.60;;;4.10;;
69434;SDS011;56625;54.322;18.582;2022-10-13T04:53:54;12.40;;;4.00;;
69434;SDS011;56625;54.322;18.582;2022-10-13T04:56:28;16.30;;;4.50;;
69434;SDS011;56625;54.322;18.582;2022-10-13T04:58:56;14.10;;;5.00;;
69434;SDS011;56625;54.322;18.582;2022-10-13T05:01:24;16.70;;;6.30;;
69434;SDS011;56625;54.322;18.582;2022-10-13T05:03:53;18.00;;;5.60;;
69434;SDS011;56625;54.322;18.582;2022-10-13T05:06:26;17.80;;;5.30;;
69434;SDS011;56625;54.322;18.582;2022-10-13T05:08:56;16.60;;;5.10;;
69434;SDS011;56625;54.322;18.582;2022-10-13T05:11:26;20.80;;;6.60;;
69434;SDS011;56625;54.322;18.582;2022-10-13T05:13:55;17.90;;;5.90;;
69434;SDS011;56625;54.322;18.582;2022-10-13T05:16:24;16.70;;;5.60;;
69434;SDS011;56625;54.322;18.582;2022-10-13T05:18:53;21.00;;;6.70;;
69434;SDS011;56625;54.322;18.582;2022-10-13T05:21:25;18.20;;;6.70;;
69434;SDS011;56625;54.322;18.582;2022-10-13T05:23:56;19.00;;;6.80;;
69434;SDS011;56625;54.322;18.582;2022-10-13T05:26:27;18.50;;;6.70;;
69434;SDS011;56625;54.322;18.582;2022-10-13T05:28:59;15.60;;;6.90;;
69434;SDS011;56625;54.322;18.582;2022-10-13T05:31:30;19.20;;;7.20;;
69434;SDS011;56625;54.322;18.582;2022-10-13T05:34:00;17.50;;;6.80;;
69434;SDS011;56625;54.322;18.582;2022-10-13T05:36:31;22.20;;;7.60;;
69434;SDS011;56625;54.322;18.582;2022-10-13T05:39:04;16.10;;;7.00;;
69434;SDS011;56625;54.322;18.582;2022-10-13T05:41:34;16.30;;;6.50;;
69434;SDS011;56625;54.322;18.582;2022-10-13T05:44:05;18.50;;;7.00;;
69434;SDS011;56625;54.322;18.582;2022-10-13T05:46:35;18.60;;;7.10;;
69434;SDS011;56625;54.322;18.582;2022-10-13T05:49:03;20.80;;;7.80;;
69434;SDS011;56625;54.322;18.582;2022-10-13T05:51:34;17.50;;;7.30;;
69434;SDS011;56625;54.322;18.582;2022-10-13T05:57:19;16.00;;;4.90;;
69434;SDS011;56625;54.322;18.582;2022-10-13T05:59:54;15.90;;;7.00;;
69434;SDS011;56625;54.322;18.582;2022-10-13T06:02:33;15.30;;;6.60;;
69434;SDS011;56625;54.322;18.582;2022-10-13T06:05:11;15.60;;;6.90;;
69434;SDS011;56625;54.322;18.582;2022-10-13T06:07:44;18.40;;;6.80;;
69434;SDS011;56625;54.322;18.582;2022-10-13T06:10:14;19.40;;;8.10;;
69434;SDS011;56625;54.322;18.582;2022-10-13T06:12:42;18.10;;;8.00;;
69434;SDS011;56625;54.322;18.582;2022-10-13T06:15:10;18.10;;;7.70;;
69434;SDS011;56625;54.322;18.582;2022-10-13T06:17:38;19.50;;;7.00;;
69434;SDS011;56625;54.322;18.582;2022-10-13T06:20:08;21.10;;;7.30;;
69434;SDS011;56625;54.322;18.582;2022-10-13T06:22:37;15.10;;;6.30;;
69434;SDS011;56625;54.322;18.582;2022-10-13T06:25:06;16.20;;;7.10;;
69434;SDS011;56625;54.322;18.582;2022-10-13T06:27:34;16.80;;;7.40;;
69434;SDS011;56625;54.322;18.582;2022-10-13T06:30:02;18.40;;;7.90;;
69434;SDS011;56625;54.322;18.582;2022-10-13T06:32:30;21.30;;;8.10;;
69434;SDS011;56625;54.322;18.582;2022-10-13T06:34:58;24.10;;;8.10;;
69434;SDS011;56625;54.322;18.582;2022-10-13T06:37:26;18.50;;;7.40;;
69434;SDS011;56625;54.322;18.582;2022-10-13T06:39:54;19.20;;;8.10;;
69434;SDS011;56625;54.322;18.582;2022-10-13T06:42:22;19.80;;;7.40;;
69434;SDS011;56625;54.322;18.582;2022-10-13T06:44:50;21.50;;;6.90;;
69434;SDS011;56625;54.322;18.582;2022-10-13T06:47:18;22.20;;;7.30;;
69434;SDS011;56625;54.322;18.582;2022-10-13T06:49:45;20.90;;;7.40;;
69434;SDS011;56625;54.322;18.582;2022-10-13T06:52:13;17.60;;;6.40;;
69434;SDS011;56625;54.322;18.582;2022-10-13T06:54:41;14.90;;;7.10;;
69434;SDS011;56625;54.322;18.582;2022-10-13T06:57:09;15.00;;;6.30;;
69434;SDS011;56625;54.322;18.582;2022-10-13T06:59:36;19.30;;;7.30;;
69434;SDS011;56625;54.322;18.582;2022-10-13T07:02:04;17.80;;;6.90;;
69434;SDS011;56625;54.322;18.582;2022-10-13T07:04:32;16.60;;;5.80;;
69434;SDS011;56625;54.322;18.582;2022-10-13T07:07:00;17.30;;;6.60;;
69434;SDS011;56625;54.322;18.582;2022-10-13T07:09:27;20.60;;;6.90;;
69434;SDS011;56625;54.322;18.582;2022-10-13T07:11:56;17.10;;;5.90;;
69434;SDS011;56625;54.322;18.582;2022-10-13T07:14:23;19.50;;;6.60;;
69434;SDS011;56625;54.322;18.582;2022-10-13T07:16:53;17.20;;;6.30;;
69434;SDS011;56625;54.322;18.582;2022-10-13T07:19:21;17.80;;;7.10;;
69434;SDS011;56625;54.322;18.582;2022-10-13T07:21:49;18.60;;;7.30;;
69434;SDS011;56625;54.322;18.582;2022-10-13T07:24:16;21.60;;;7.90;;
69434;SDS011;56625;54.322;18.582;2022-10-13T07:26:44;18.90;;;7.60;;
69434;SDS011;56625;54.322;18.582;2022-10-13T07:29:12;19.80;;;6.90;;
69434;SDS011;56625;54.322;18.582;2022-10-13T07:31:42;20.20;;;7.80;;
69434;SDS011;56625;54.322;18.582;2022-10-13T07:34:11;18.50;;;6.70;;
69434;SDS011;56625;54.322;18.582;2022-10-13T07:36:39;19.00;;;6.70;;
69434;SDS011;56625;54.322;18.582;2022-10-13T07:39:08;16.90;;;6.20;;
69434;SDS011;56625;54.322;18.582;2022-10-13T07:41:36;18.30;;;7.40;;
69434;SDS011;56625;54.322;18.582;2022-10-13T07:44:04;17.60;;;6.90;;
69434;SDS011;56625;54.322;18.582;2022-10-13T07:46:32;19.80;;;7.70;;
69434;SDS011;56625;54.322;18.582;2022-10-13T07:49:00;18.10;;;7.70;;
69434;SDS011;56625;54.322;18.582;2022-10-13T07:51:28;15.40;;;6.20;;
69434;SDS011;56625;54.322;18.582;2022-10-13T07:53:56;18.40;;;7.20;;
69434;SDS011;56625;54.322;18.582;2022-10-13T07:56:24;17.10;;;6.40;;
69434;SDS011;56625;54.322;18.582;2022-10-13T07:58:51;17.10;;;6.20;;
69434;SDS011;56625;54.322;18.582;2022-10-13T08:01:19;17.30;;;6.00;;
69434;SDS011;56625;54.322;18.582;2022-10-13T08:03:47;17.40;;;6.80;;
69434;SDS011;56625;54.322;18.582;2022-10-13T08:06:19;17.10;;;6.60;;
69434;SDS011;56625;54.322;18.582;2022-10-13T08:08:50;17.50;;;6.90;;
69434;SDS011;56625;54.322;18.582;2022-10-13T08:11:18;16.20;;;7.30;;
69434;SDS011;56625;54.322;18.582;2022-10-13T08:13:52;12.80;;;3.80;;
69434;SDS011;56625;54.322;18.582;2022-10-13T08:16:22;18.70;;;6.40;;
69434;SDS011;56625;54.322;18.582;2022-10-13T08:18:50;16.70;;;6.30;;
69434;SDS011;56625;54.322;18.582;2022-10-13T08:21:19;26.40;;;5.80;;
69434;SDS011;56625;54.322;18.582;2022-10-13T08:24:13;13.80;;;4.40;;
69434;SDS011;56625;54.322;18.582;2022-10-13T08:26:45;15.90;;;5.70;;
69434;SDS011;56625;54.322;18.582;2022-10-13T08:29:13;18.20;;;6.60;;
69434;SDS011;56625;54.322;18.582;2022-10-13T08:31:52;14.00;;;5.30;;
69434;SDS011;56625;54.322;18.582;2022-10-13T08:34:22;11.10;;;4.40;;
69434;SDS011;56625;54.322;18.582;2022-10-13T08:36:51;12.10;;;4.60;;
69434;SDS011;56625;54.322;18.582;2022-10-13T08:39:23;14.40;;;4.70;;
69434;SDS011;56625;54.322;18.582;2022-10-13T08:41:53;10.00;;;3.50;;
69434;SDS011;56625;54.322;18.582;2022-10-13T08:44:34;15.70;;;5.50;;
69434;SDS011;56625;54.322;18.582;2022-10-13T08:49:55;14.10;;;4.70;;
69434;SDS011;56625;54.322;18.582;2022-10-13T08:52:43;17.70;;;4.30;;
69434;SDS011;56625;54.322;18.582;2022-10-13T08:55:23;11.30;;;3.70;;
69434;SDS011;56625;54.322;18.582;2022-10-13T08:57:58;11.00;;;3.90;;
69434;SDS011;56625;54.322;18.582;2022-10-13T09:00:28;10.70;;;3.80;;
69434;SDS011;56625;54.322;18.582;2022-10-13T09:03:18;14.50;;;4.10;;
69434;SDS011;56625;54.322;18.582;2022-10-13T09:06:12;12.80;;;3.70;;
69434;SDS011;56625;54.322;18.582;2022-10-13T09:08:55;9.70;;;2.30;;
69434;SDS011;56625;54.322;18.582;2022-10-13T09:11:30;9.30;;;3.00;;
69434;SDS011;56625;54.322;18.582;2022-10-13T09:14:05;12.90;;;3.60;;
69434;SDS011;56625;54.322;18.582;2022-10-13T09:16:42;7.90;;;2.70;;
69434;SDS011;56625;54.322;18.582;2022-10-13T09:19:29;10.00;;;2.80;;
69434;SDS011;56625;54.322;18.582;2022-10-13T09:22:20;16.10;;;4.00;;
69434;SDS011;56625;54.322;18.582;2022-10-13T09:27:55;12.00;;;4.20;;
69434;SDS011;56625;54.322;18.582;2022-10-13T09:30:44;10.80;;;3.30;;
69434;SDS011;56625;54.322;18.582;2022-10-13T09:33:22;12.60;;;3.50;;
69434;SDS011;56625;54.322;18.582;2022-10-13T09:38:28;10.50;;;3.40;;
69434;SDS011;56625;54.322;18.582;2022-10-13T09:46:38;11.90;;;3.20;;
69434;SDS011;56625;54.322;18.582;2022-10-13T09:49:39;10.00;;;2.40;;
69434;SDS011;56625;54.322;18.582;2022-10-13T09:54:49;11.30;;;2.20;;
69434;SDS011;56625;54.322;18.582;2022-10-13T09:57:40;10.40;;;2.90;;
69434;SDS011;56625;54.322;18.582;2022-10-13T10:00:25;12.40;;;2.70;;
69434;SDS011;56625;54.322;18.582;2022-10-13T10:02:57;10.60;;;3.10;;
69434;SDS011;56625;54.322;18.582;2022-10-13T10:05:53;11.50;;;2.80;;
69434;SDS011;56625;54.322;18.582;2022-10-13T10:11:34;10.80;;;2.70;;
69434;SDS011;56625;54.322;18.582;2022-10-13T10:14:16;9.20;;;2.40;;
69434;SDS011;56625;54.322;18.582;2022-10-13T10:26:09;7.40;;;2.00;;
69434;SDS011;56625;54.322;18.582;2022-10-13T10:35:15;10.10;;;2.80;;
69434;SDS011;56625;54.322;18.582;2022-10-13T10:38:11;9.50;;;2.40;;
69434;SDS011;56625;54.322;18.582;2022-10-13T10:43:52;7.10;;;1.90;;
69434;SDS011;56625;54.322;18.582;2022-10-13T10:46:51;9.30;;;1.90;;
69434;SDS011;56625;54.322;18.582;2022-10-13T10:49:22;10.90;;;2.60;;
69434;SDS011;56625;54.322;18.582;2022-10-13T10:51:57;10.60;;;1.90;;
69434;SDS011;56625;54.322;18.582;2022-10-13T10:57:35;10.40;;;2.50;;
69434;SDS011;56625;54.322;18.582;2022-10-13T11:00:17;9.40;;;2.10;;
69434;SDS011;56625;54.322;18.582;2022-10-13T11:03:40;9.30;;;2.10;;
69434;SDS011;56625;54.322;18.582;2022-10-13T11:08:45;10.20;;;1.80;;
69434;SDS011;56625;54.322;18.582;2022-10-13T11:13:59;8.60;;;2.40;;
69434;SDS011;56625;54.322;18.582;2022-10-13T11:19:34;6.90;;;1.80;;
69434;SDS011;56625;54.322;18.582;2022-10-13T11:27:17;9.60;;;2.30;;
69434;SDS011;56625;54.322;18.582;2022-10-13T11:29:54;8.40;;;1.80;;
69434;SDS011;56625;54.322;18.582;2022-10-13T11:35:17;8.30;;;2.50;;
69434;SDS011;56625;54.322;18.582;2022-10-13T11:43:51;10.00;;;2.90;;
69434;SDS011;56625;54.322;18.582;2022-10-13T11:49:37;8.90;;;2.70;;
69434;SDS011;56625;54.322;18.582;2022-10-13T11:52:29;10.60;;;2.50;;
69434;SDS011;56625;54.322;18.582;2022-10-13T11:55:11;9.80;;;2.10;;
69434;SDS011;56625;54.322;18.582;2022-10-13T11:57:44;11.00;;;2.90;;
69434;SDS011;56625;54.322;18.582;2022-10-13T12:00:15;10.70;;;2.20;;
69434;SDS011;56625;54.322;18.582;2022-10-13T12:02:51;10.80;;;2.20;;
69434;SDS011;56625;54.322;18.582;2022-10-13T12:05:23;12.10;;;2.80;;
69434;SDS011;56625;54.322;18.582;2022-10-13T12:07:57;10.50;;;2.60;;
69434;SDS011;56625;54.322;18.582;2022-10-13T12:10:32;9.40;;;3.10;;
69434;SDS011;56625;54.322;18.582;2022-10-13T12:13:03;10.00;;;2.30;;
69434;SDS011;56625;54.322;18.582;2022-10-13T12:15:40;10.90;;;2.40;;
69434;SDS011;56625;54.322;18.582;2022-10-13T12:18:29;6.80;;;2.30;;
69434;SDS011;56625;54.322;18.582;2022-10-13T12:21:24;11.20;;;2.70;;
69434;SDS011;56625;54.322;18.582;2022-10-13T12:24:05;13.30;;;3.20;;
69434;SDS011;56625;54.322;18.582;2022-10-13T12:26:36;11.00;;;2.80;;
69434;SDS011;56625;54.322;18.582;2022-10-13T12:29:10;12.90;;;3.10;;
69434;SDS011;56625;54.322;18.582;2022-10-13T12:31:46;8.10;;;2.30;;
69434;SDS011;56625;54.322;18.582;2022-10-13T12:34:23;9.80;;;2.40;;
69434;SDS011;56625;54.322;18.582;2022-10-13T12:37:00;8.80;;;2.80;;
69434;SDS011;56625;54.322;18.582;2022-10-13T12:39:32;12.20;;;3.30;;
69434;SDS011;56625;54.322;18.582;2022-10-13T12:42:02;10.00;;;2.90;;
69434;SDS011;56625;54.322;18.582;2022-10-13T12:44:33;11.50;;;3.00;;
69434;SDS011;56625;54.322;18.582;2022-10-13T12:47:03;9.70;;;2.40;;
69434;SDS011;56625;54.322;18.582;2022-10-13T12:49:34;12.30;;;3.10;;
69434;SDS011;56625;54.322;18.582;2022-10-13T12:52:11;10.30;;;2.40;;
69434;SDS011;56625;54.322;18.582;2022-10-13T12:54:51;10.20;;;2.80;;
69434;SDS011;56625;54.322;18.582;2022-10-13T12:57:33;7.90;;;2.50;;
69434;SDS011;56625;54.322;18.582;2022-10-13T13:00:25;8.90;;;2.50;;
69434;SDS011;56625;54.322;18.582;2022-10-13T13:03:00;9.30;;;2.80;;
69434;SDS011;56625;54.322;18.582;2022-10-13T13:05:37;9.70;;;2.40;;
69434;SDS011;56625;54.322;18.582;2022-10-13T13:08:27;8.50;;;2.60;;
69434;SDS011;56625;54.322;18.582;2022-10-13T13:10:58;11.00;;;3.10;;
69434;SDS011;56625;54.322;18.582;2022-10-13T13:13:29;6.60;;;2.20;;
69434;SDS011;56625;54.322;18.582;2022-10-13T13:16:15;8.10;;;2.00;;
69434;SDS011;56625;54.322;18.582;2022-10-13T13:18:47;12.60;;;2.60;;
69434;SDS011;56625;54.322;18.582;2022-10-13T13:21:18;10.80;;;2.90;;
69434;SDS011;56625;54.322;18.582;2022-10-13T13:23:47;8.10;;;2.50;;
69434;SDS011;56625;54.322;18.582;2022-10-13T13:26:22;10.40;;;2.40;;
69434;SDS011;56625;54.322;18.582;2022-10-13T13:28:53;7.00;;;1.80;;
69434;SDS011;56625;54.322;18.582;2022-10-13T13:31:24;14.00;;;2.50;;
69434;SDS011;56625;54.322;18.582;2022-10-13T13:33:52;8.40;;;2.40;;
69434;SDS011;56625;54.322;18.582;2022-10-13T13:36:22;11.20;;;3.10;;
69434;SDS011;56625;54.322;18.582;2022-10-13T13:38:53;10.00;;;2.90;;
69434;SDS011;56625;54.322;18.582;2022-10-13T13:41:21;11.60;;;3.00;;
69434;SDS011;56625;54.322;18.582;2022-10-13T13:43:54;9.60;;;3.00;;
69434;SDS011;56625;54.322;18.582;2022-10-13T13:46:23;11.60;;;2.80;;
69434;SDS011;56625;54.322;18.582;2022-10-13T13:48:54;13.00;;;3.00;;
69434;SDS011;56625;54.322;18.582;2022-10-13T13:51:21;10.60;;;2.80;;
69434;SDS011;56625;54.322;18.582;2022-10-13T13:53:49;11.80;;;2.80;;
69434;SDS011;56625;54.322;18.582;2022-10-13T13:56:19;9.70;;;3.40;;
69434;SDS011;56625;54.322;18.582;2022-10-13T13:58:47;11.20;;;2.80;;
69434;SDS011;56625;54.322;18.582;2022-10-13T14:01:15;12.10;;;3.40;;
69434;SDS011;56625;54.322;18.582;2022-10-13T14:03:43;9.90;;;3.00;;
69434;SDS011;56625;54.322;18.582;2022-10-13T14:06:16;9.10;;;3.20;;
69434;SDS011;56625;54.322;18.582;2022-10-13T14:08:45;12.40;;;3.20;;
69434;SDS011;56625;54.322;18.582;2022-10-13T14:11:13;9.60;;;3.10;;
69434;SDS011;56625;54.322;18.582;2022-10-13T14:13:41;9.60;;;3.20;;
69434;SDS011;56625;54.322;18.582;2022-10-13T14:16:14;12.40;;;3.90;;
69434;SDS011;56625;54.322;18.582;2022-10-13T14:18:44;11.90;;;3.20;;
69434;SDS011;56625;54.322;18.582;2022-10-13T14:21:13;12.30;;;3.20;;
69434;SDS011;56625;54.322;18.582;2022-10-13T14:23:41;12.30;;;3.10;;
69434;SDS011;56625;54.322;18.582;2022-10-13T14:26:13;12.30;;;3.40;;
69434;SDS011;56625;54.322;18.582;2022-10-13T14:28:43;10.40;;;3.20;;
69434;SDS011;56625;54.322;18.582;2022-10-13T14:31:11;12.00;;;3.20;;
69434;SDS011;56625;54.322;18.582;2022-10-13T14:33:40;13.00;;;3.40;;
69434;SDS011;56625;54.322;18.582;2022-10-13T14:36:08;9.70;;;3.50;;
69434;SDS011;56625;54.322;18.582;2022-10-13T14:38:35;10.30;;;3.00;;
69434;SDS011;56625;54.322;18.582;2022-10-13T14:41:04;13.10;;;3.40;;
69434;SDS011;56625;54.322;18.582;2022-10-13T14:43:32;10.60;;;3.60;;
69434;SDS011;56625;54.322;18.582;2022-10-13T14:46:03;13.40;;;3.80;;
69434;SDS011;56625;54.322;18.582;2022-10-13T14:48:34;12.60;;;2.70;;
69434;SDS011;56625;54.322;18.582;2022-10-13T14:51:07;14.70;;;4.00;;
69434;SDS011;56625;54.322;18.582;2022-10-13T14:53:42;19.60;;;4.00;;
69434;SDS011;56625;54.322;18.582;2022-10-13T15:01:22;12.00;;;3.90;;
69434;SDS011;56625;54.322;18.582;2022-10-13T15:08:56;11.00;;;3.00;;
69434;SDS011;56625;54.322;18.582;2022-10-13T15:15:21;13.40;;;4.00;;
69434;SDS011;56625;54.322;18.582;2022-10-13T15:19:18;10.70;;;3.30;;
69434;SDS011;56625;54.322;18.582;2022-10-13T15:22:53;16.50;;;4.00;;
69434;SDS011;56625;54.322;18.582;2022-10-13T15:25:20;18.70;;;5.40;;
69434;SDS011;56625;54.322;18.582;2022-10-13T15:27:48;10.90;;;3.40;;
69434;SDS011;56625;54.322;18.582;2022-10-13T15:30:16;14.60;;;3.60;;
69434;SDS011;56625;54.322;18.582;2022-10-13T15:32:47;12.60;;;3.60;;
69434;SDS011;56625;54.322;18.582;2022-10-13T15:35:16;10.50;;;3.20;;
69434;SDS011;56625;54.322;18.582;2022-10-13T15:37:44;10.00;;;3.40;;
69434;SDS011;56625;54.322;18.582;2022-10-13T15:40:12;12.50;;;3.90;;
69434;SDS011;56625;54.322;18.582;2022-10-13T15:42:40;12.90;;;3.90;;
69434;SDS011;56625;54.322;18.582;2022-10-13T15:45:08;14.80;;;4.60;;
69434;SDS011;56625;54.322;18.582;2022-10-13T15:47:38;14.80;;;5.10;;
69434;SDS011;56625;54.322;18.582;2022-10-13T15:50:07;17.40;;;4.80;;
69434;SDS011;56625;54.322;18.582;2022-10-13T15:52:37;10.10;;;3.90;;
69434;SDS011;56625;54.322;18.582;2022-10-13T15:55:10;10.70;;;4.40;;
69434;SDS011;56625;54.322;18.582;2022-10-13T15:57:38;13.90;;;4.70;;
69434;SDS011;56625;54.322;18.582;2022-10-13T16:00:07;12.10;;;3.90;;
69434;SDS011;56625;54.322;18.582;2022-10-13T16:02:41;15.50;;;4.70;;
69434;SDS011;56625;54.322;18.582;2022-10-13T16:05:11;13.80;;;4.70;;
69434;SDS011;56625;54.322;18.582;2022-10-13T16:07:40;14.40;;;3.80;;
69434;SDS011;56625;54.322;18.582;2022-10-13T16:10:14;11.80;;;3.90;;
69434;SDS011;56625;54.322;18.582;2022-10-13T16:12:42;10.50;;;4.20;;
69434;SDS011;56625;54.322;18.582;2022-10-13T16:15:16;16.70;;;4.50;;
69434;SDS011;56625;54.322;18.582;2022-10-13T16:17:45;14.40;;;4.20;;
69434;SDS011;56625;54.322;18.582;2022-10-13T16:20:13;13.10;;;4.40;;
69434;SDS011;56625;54.322;18.582;2022-10-13T16:22:41;13.80;;;4.80;;
69434;SDS011;56625;54.322;18.582;2022-10-13T16:25:09;15.30;;;4.70;;
69434;SDS011;56625;54.322;18.582;2022-10-13T16:27:37;13.70;;;4.40;;
69434;SDS011;56625;54.322;18.582;2022-10-13T16:30:11;14.20;;;4.60;;
69434;SDS011;56625;54.322;18.582;2022-10-13T16:32:39;14.60;;;4.90;;
69434;SDS011;56625;54.322;18.582;2022-10-13T16:35:07;13.70;;;4.60;;
69434;SDS011;56625;54.322;18.582;2022-10-13T16:37:35;17.50;;;5.80;;
69434;SDS011;56625;54.322;18.582;2022-10-13T16:40:03;15.10;;;5.20;;
69434;SDS011;56625;54.322;18.582;2022-10-13T16:42:31;13.40;;;5.10;;
69434;SDS011;56625;54.322;18.582;2022-10-13T16:44:59;15.40;;;5.10;;